sensor_id;sensor_type;location;lat;lon;timestamp;temperature;humidity
24412;DHT22;12544;46.760;15.942;2024-01-15T00:01:56;-3.20;99.90
24412;DHT22;12544;46.760;15.942;2024-01-15T00:04:22;-3.20;99.90
24412;DHT22;12544;46.760;15.942;2024-01-15T00:06:49;-3.20;99.90
24412;DHT22;12544;46.760;15.942;2024-01-15T00:09:15;-3.20;99.90
24412;DHT22;12544;46.760;15.942;2024-01-15T00:11:41;-3.20;99.90
24412;DHT22;12544;46.760;15.942;2024-01-15T00:14:07;-3.10;99.90
24412;DHT22;12544;46.760;15.942;2024-01-15T00:16:33;-3.10;99.90
24412;DHT22;12544;46.760;15.942;2024-01-15T00:18:59;-3.10;99.90
24412;DHT22;12544;46.760;15.942;2024-01-15T00:21:24;-3.10;99.90
24412;DHT22;12544;46.760;15.942;2024-01-15T00:23:50;-3.20;99.90
24412;DHT22;12544;46.760;15.942;2024-01-15T00:26:16;-3.20;99.90
24412;DHT22;12544;46.760;15.942;2024-01-15T00:28:41;-3.20;99.90
24412;DHT22;12544;46.760;15.942;2024-01-15T00:31:07;-3.20;99.90
24412;DHT22;12544;46.760;15.942;2024-01-15T00:33:33;-3.20;99.90
24412;DHT22;12544;46.760;15.942;2024-01-15T00:35:59;-3.20;99.90
24412;DHT22;12544;46.760;15.942;2024-01-15T00:38:24;-3.20;99.90
24412;DHT22;12544;46.760;15.942;2024-01-15T00:40:50;-3.20;99.90
24412;DHT22;12544;46.760;15.942;2024-01-15T00:43:16;-3.20;99.90
24412;DHT22;12544;46.760;15.942;2024-01-15T00:45:43;-3.20;99.90
24412;DHT22;12544;46.760;15.942;2024-01-15T00:48:09;-3.20;99.90
24412;DHT22;12544;46.760;15.942;2024-01-15T00:50:34;-3.30;99.90
24412;DHT22;12544;46.760;15.942;2024-01-15T00:53:00;-3.30;99.90
24412;DHT22;12544;46.760;15.942;2024-01-15T00:55:27;-3.20;99.90
24412;DHT22;12544;46.760;15.942;2024-01-15T00:57:52;-3.20;99.90
24412;DHT22;12544;46.760;15.942;2024-01-15T01:00:18;-3.20;99.90
24412;DHT22;12544;46.760;15.942;2024-01-15T01:02:43;-3.30;99.90
24412;DHT22;12544;46.760;15.942;2024-01-15T01:05:09;-3.20;99.90
24412;DHT22;12544;46.760;15.942;2024-01-15T01:07:35;-3.30;99.90
24412;DHT22;12544;46.760;15.942;2024-01-15T01:10:01;-3.30;99.90
24412;DHT22;12544;46.760;15.942;2024-01-15T01:12:26;-3.30;99.90
24412;DHT22;12544;46.760;15.942;2024-01-15T01:14:52;-3.30;99.90
24412;DHT22;12544;46.760;15.942;2024-01-15T01:17:18;-3.30;99.90
24412;DHT22;12544;46.760;15.942;2024-01-15T01:19:44;-3.30;99.90
24412;DHT22;12544;46.760;15.942;2024-01-15T01:22:09;-3.30;99.90
24412;DHT22;12544;46.760;15.942;2024-01-15T01:24:36;-3.30;99.90
24412;DHT22;12544;46.760;15.942;2024-01-15T01:27:01;-3.30;99.90
24412;DHT22;12544;46.760;15.942;2024-01-15T01:29:27;-3.30;99.90
24412;DHT22;12544;46.760;15.942;2024-01-15T01:31:52;-3.40;99.90
24412;DHT22;12544;46.760;15.942;2024-01-15T01:34:18;-3.40;99.90
24412;DHT22;12544;46.760;15.942;2024-01-15T01:36:44;-3.40;99.90
24412;DHT22;12544;46.760;15.942;2024-01-15T01:39:10;-3.40;99.90
24412;DHT22;12544;46.760;15.942;2024-01-15T01:41:36;-3.30;99.90
24412;DHT22;12544;46.760;15.942;2024-01-15T01:44:02;-3.30;99.90
24412;DHT22;12544;46.760;15.942;2024-01-15T01:46:28;-3.20;99.90
24412;DHT22;12544;46.760;15.942;2024-01-15T01:48:55;-3.30;99.90
24412;DHT22;12544;46.760;15.942;2024-01-15T01:51:23;-3.30;99.90
24412;DHT22;12544;46.760;15.942;2024-01-15T01:53:50;-3.20;99.90
24412;DHT22;12544;46.760;15.942;2024-01-15T01:56:17;-3.20;99.90
24412;DHT22;12544;46.760;15.942;2024-01-15T01:58:44;-3.30;99.90
24412;DHT22;12544;46.760;15.942;2024-01-15T02:01:12;-3.30;99.90
24412;DHT22;12544;46.760;15.942;2024-01-15T02:03:39;-3.30;99.90
24412;DHT22;12544;46.760;15.942;2024-01-15T02:06:05;-3.20;99.90
24412;DHT22;12544;46.760;15.942;2024-01-15T02:08:31;-3.30;99.90
24412;DHT22;12544;46.760;15.942;2024-01-15T02:10:57;-3.30;99.90
24412;DHT22;12544;46.760;15.942;2024-01-15T02:13:22;-3.20;99.90
24412;DHT22;12544;46.760;15.942;2024-01-15T02:15:48;-3.30;99.90
24412;DHT22;12544;46.760;15.942;2024-01-15T02:18:14;-3.30;99.90
24412;DHT22;12544;46.760;15.942;2024-01-15T02:20:39;-3.30;99.90
24412;DHT22;12544;46.760;15.942;2024-01-15T02:23:12;-3.30;99.90
24412;DHT22;12544;46.760;15.942;2024-01-15T02:25:45;-3.30;99.90
24412;DHT22;12544;46.760;15.942;2024-01-15T02:28:16;-3.30;99.90
24412;DHT22;12544;46.760;15.942;2024-01-15T02:30:43;-3.30;99.90
24412;DHT22;12544;46.760;15.942;2024-01-15T02:33:09;-3.40;99.90
24412;DHT22;12544;46.760;15.942;2024-01-15T02:35:36;-3.40;99.90
24412;DHT22;12544;46.760;15.942;2024-01-15T02:38:05;-3.50;99.90
24412;DHT22;12544;46.760;15.942;2024-01-15T02:40:31;-3.50;99.90
24412;DHT22;12544;46.760;15.942;2024-01-15T02:42:57;-3.50;99.90
24412;DHT22;12544;46.760;15.942;2024-01-15T02:45:23;-3.50;99.90
24412;DHT22;12544;46.760;15.942;2024-01-15T02:47:49;-3.50;99.90
24412;DHT22;12544;46.760;15.942;2024-01-15T02:50:16;-3.50;99.90
24412;DHT22;12544;46.760;15.942;2024-01-15T02:52:42;-3.60;99.90
24412;DHT22;12544;46.760;15.942;2024-01-15T02:55:08;-3.60;99.90
24412;DHT22;12544;46.760;15.942;2024-01-15T02:57:34;-3.70;99.90
24412;DHT22;12544;46.760;15.942;2024-01-15T02:59:59;-3.60;99.90
24412;DHT22;12544;46.760;15.942;2024-01-15T03:02:25;-3.60;99.90
24412;DHT22;12544;46.760;15.942;2024-01-15T03:04:51;-3.60;99.90
24412;DHT22;12544;46.760;15.942;2024-01-15T03:07:17;-3.70;99.90
24412;DHT22;12544;46.760;15.942;2024-01-15T03:09:42;-3.70;99.90
24412;DHT22;12544;46.760;15.942;2024-01-15T03:12:08;-3.60;99.90
24412;DHT22;12544;46.760;15.942;2024-01-15T03:14:33;-3.50;99.90
24412;DHT22;12544;46.760;15.942;2024-01-15T03:17:00;-3.50;99.90
24412;DHT22;12544;46.760;15.942;2024-01-15T03:19:26;-3.40;99.90
24412;DHT22;12544;46.760;15.942;2024-01-15T03:21:52;-3.40;99.90
24412;DHT22;12544;46.760;15.942;2024-01-15T03:24:17;-3.30;99.90
24412;DHT22;12544;46.760;15.942;2024-01-15T03:26:43;-3.30;99.90
24412;DHT22;12544;46.760;15.942;2024-01-15T03:29:08;-3.20;99.90
24412;DHT22;12544;46.760;15.942;2024-01-15T03:31:34;-3.20;99.90
24412;DHT22;12544;46.760;15.942;2024-01-15T03:34:00;-3.20;99.90
24412;DHT22;12544;46.760;15.942;2024-01-15T03:36:26;-3.20;99.90
24412;DHT22;12544;46.760;15.942;2024-01-15T03:38:51;-3.20;99.90
24412;DHT22;12544;46.760;15.942;2024-01-15T03:41:17;-3.30;99.90
24412;DHT22;12544;46.760;15.942;2024-01-15T03:43:42;-3.40;99.90
24412;DHT22;12544;46.760;15.942;2024-01-15T03:46:08;-3.30;99.90
24412;DHT22;12544;46.760;15.942;2024-01-15T03:48:33;-3.40;99.90
24412;DHT22;12544;46.760;15.942;2024-01-15T03:50:59;-3.40;99.90
24412;DHT22;12544;46.760;15.942;2024-01-15T03:53:25;-3.50;99.90
24412;DHT22;12544;46.760;15.942;2024-01-15T03:55:50;-3.50;99.90
24412;DHT22;12544;46.760;15.942;2024-01-15T03:58:16;-3.40;99.90
24412;DHT22;12544;46.760;15.942;2024-01-15T04:00:42;-3.40;99.90
24412;DHT22;12544;46.760;15.942;2024-01-15T04:03:08;-3.40;99.90
24412;DHT22;12544;46.760;15.942;2024-01-15T04:05:34;-3.30;99.90
24412;DHT22;12544;46.760;15.942;2024-01-15T04:08:00;-3.40;99.90
24412;DHT22;12544;46.760;15.942;2024-01-15T04:10:25;-3.40;99.90
24412;DHT22;12544;46.760;15.942;2024-01-15T04:12:51;-3.40;99.90
24412;DHT22;12544;46.760;15.942;2024-01-15T04:15:17;-3.40;99.90
24412;DHT22;12544;46.760;15.942;2024-01-15T04:17:42;-3.40;99.90
24412;DHT22;12544;46.760;15.942;2024-01-15T04:20:08;-3.40;99.90
24412;DHT22;12544;46.760;15.942;2024-01-15T04:22:35;-3.50;99.90
24412;DHT22;12544;46.760;15.942;2024-01-15T04:25:01;-3.50;99.90
24412;DHT22;12544;46.760;15.942;2024-01-15T04:27:27;-3.50;99.90
24412;DHT22;12544;46.760;15.942;2024-01-15T04:29:53;-3.50;99.90
24412;DHT22;12544;46.760;15.942;2024-01-15T04:32:18;-3.60;99.90
24412;DHT22;12544;46.760;15.942;2024-01-15T04:34:44;-3.50;99.90
24412;DHT22;12544;46.760;15.942;2024-01-15T04:37:10;-3.60;99.90
24412;DHT22;12544;46.760;15.942;2024-01-15T04:39:35;-3.70;99.90
24412;DHT22;12544;46.760;15.942;2024-01-15T04:42:01;-3.90;99.90
24412;DHT22;12544;46.760;15.942;2024-01-15T04:44:27;-4.00;99.90
24412;DHT22;12544;46.760;15.942;2024-01-15T04:46:52;-4.00;99.90
24412;DHT22;12544;46.760;15.942;2024-01-15T04:49:18;-4.10;99.90
24412;DHT22;12544;46.760;15.942;2024-01-15T04:51:44;-4.10;99.90
24412;DHT22;12544;46.760;15.942;2024-01-15T04:54:09;-4.00;99.90
24412;DHT22;12544;46.760;15.942;2024-01-15T04:56:35;-4.00;99.90
24412;DHT22;12544;46.760;15.942;2024-01-15T04:59:00;-3.90;99.90
24412;DHT22;12544;46.760;15.942;2024-01-15T05:01:31;-3.90;99.90
24412;DHT22;12544;46.760;15.942;2024-01-15T05:03:57;-3.90;99.90
24412;DHT22;12544;46.760;15.942;2024-01-15T05:06:23;-3.90;99.90
24412;DHT22;12544;46.760;15.942;2024-01-15T05:08:49;-3.90;99.90
24412;DHT22;12544;46.760;15.942;2024-01-15T05:11:14;-3.90;99.90
24412;DHT22;12544;46.760;15.942;2024-01-15T05:13:40;-3.90;99.90
24412;DHT22;12544;46.760;15.942;2024-01-15T05:16:06;-3.90;99.90
24412;DHT22;12544;46.760;15.942;2024-01-15T05:18:31;-3.90;99.90
24412;DHT22;12544;46.760;15.942;2024-01-15T05:20:57;-3.90;99.90
24412;DHT22;12544;46.760;15.942;2024-01-15T05:23:23;-3.90;99.90
24412;DHT22;12544;46.760;15.942;2024-01-15T05:25:48;-3.90;99.90
24412;DHT22;12544;46.760;15.942;2024-01-15T05:28:14;-4.00;99.90
24412;DHT22;12544;46.760;15.942;2024-01-15T05:30:40;-4.00;99.90
24412;DHT22;12544;46.760;15.942;2024-01-15T05:33:05;-4.10;99.90
24412;DHT22;12544;46.760;15.942;2024-01-15T05:35:33;-4.00;99.90
24412;DHT22;12544;46.760;15.942;2024-01-15T05:37:59;-4.00;99.90
24412;DHT22;12544;46.760;15.942;2024-01-15T05:40:24;-4.10;99.90
24412;DHT22;12544;46.760;15.942;2024-01-15T05:42:50;-4.10;99.90
24412;DHT22;12544;46.760;15.942;2024-01-15T05:45:16;-4.10;99.90
24412;DHT22;12544;46.760;15.942;2024-01-15T05:47:42;-4.10;99.90
24412;DHT22;12544;46.760;15.942;2024-01-15T05:50:09;-4.10;99.90
24412;DHT22;12544;46.760;15.942;2024-01-15T05:52:35;-4.00;99.90
24412;DHT22;12544;46.760;15.942;2024-01-15T05:55:00;-3.90;99.90
24412;DHT22;12544;46.760;15.942;2024-01-15T05:57:26;-3.90;99.90
24412;DHT22;12544;46.760;15.942;2024-01-15T05:59:51;-3.80;99.90
24412;DHT22;12544;46.760;15.942;2024-01-15T06:02:17;-3.70;99.90
24412;DHT22;12544;46.760;15.942;2024-01-15T06:04:43;-3.80;99.90
24412;DHT22;12544;46.760;15.942;2024-01-15T06:07:08;-3.70;99.90
24412;DHT22;12544;46.760;15.942;2024-01-15T06:09:38;-3.80;99.90
24412;DHT22;12544;46.760;15.942;2024-01-15T06:12:05;-3.70;99.90
24412;DHT22;12544;46.760;15.942;2024-01-15T06:14:30;-3.80;99.90
24412;DHT22;12544;46.760;15.942;2024-01-15T06:16:56;-3.80;99.90
24412;DHT22;12544;46.760;15.942;2024-01-15T06:19:22;-3.80;99.90
24412;DHT22;12544;46.760;15.942;2024-01-15T06:21:47;-3.80;99.90
24412;DHT22;12544;46.760;15.942;2024-01-15T06:24:13;-3.80;99.90
24412;DHT22;12544;46.760;15.942;2024-01-15T06:26:39;-3.80;99.90
24412;DHT22;12544;46.760;15.942;2024-01-15T06:29:04;-3.80;99.90
24412;DHT22;12544;46.760;15.942;2024-01-15T06:31:30;-4.10;99.90
24412;DHT22;12544;46.760;15.942;2024-01-15T06:33:56;-4.00;99.90
24412;DHT22;12544;46.760;15.942;2024-01-15T06:36:22;-4.10;99.90
24412;DHT22;12544;46.760;15.942;2024-01-15T06:38:48;-4.10;99.90
24412;DHT22;12544;46.760;15.942;2024-01-15T06:41:13;-4.10;99.90
24412;DHT22;12544;46.760;15.942;2024-01-15T06:43:39;-4.10;99.90
24412;DHT22;12544;46.760;15.942;2024-01-15T06:46:04;-4.20;99.90
24412;DHT22;12544;46.760;15.942;2024-01-15T06:48:30;-4.40;99.90
24412;DHT22;12544;46.760;15.942;2024-01-15T06:50:56;-4.40;99.90
24412;DHT22;12544;46.760;15.942;2024-01-15T06:53:21;-4.30;99.90
24412;DHT22;12544;46.760;15.942;2024-01-15T06:55:48;-4.40;99.90
24412;DHT22;12544;46.760;15.942;2024-01-15T06:58:14;-4.50;99.90
24412;DHT22;12544;46.760;15.942;2024-01-15T07:00:40;-4.50;99.90
24412;DHT22;12544;46.760;15.942;2024-01-15T07:03:06;-4.70;99.90
24412;DHT22;12544;46.760;15.942;2024-01-15T07:05:32;-4.70;99.90
24412;DHT22;12544;46.760;15.942;2024-01-15T07:07:58;-4.70;99.90
24412;DHT22;12544;46.760;15.942;2024-01-15T07:10:24;-4.60;99.90
24412;DHT22;12544;46.760;15.942;2024-01-15T07:12:49;-4.60;99.90
24412;DHT22;12544;46.760;15.942;2024-01-15T07:15:15;-4.50;99.90
24412;DHT22;12544;46.760;15.942;2024-01-15T07:17:41;-4.50;99.90
24412;DHT22;12544;46.760;15.942;2024-01-15T07:20:08;-4.50;99.90
24412;DHT22;12544;46.760;15.942;2024-01-15T07:22:37;-4.40;99.90
24412;DHT22;12544;46.760;15.942;2024-01-15T07:25:03;-4.40;99.90
24412;DHT22;12544;46.760;15.942;2024-01-15T07:27:31;-4.30;99.90
24412;DHT22;12544;46.760;15.942;2024-01-15T07:29:57;-4.40;99.90
24412;DHT22;12544;46.760;15.942;2024-01-15T07:32:22;-4.40;99.90
24412;DHT22;12544;46.760;15.942;2024-01-15T07:34:48;-4.30;99.90
24412;DHT22;12544;46.760;15.942;2024-01-15T07:37:14;-4.30;99.90
24412;DHT22;12544;46.760;15.942;2024-01-15T07:39:40;-4.30;99.90
24412;DHT22;12544;46.760;15.942;2024-01-15T07:42:06;-4.30;99.90
24412;DHT22;12544;46.760;15.942;2024-01-15T07:44:31;-4.20;99.90
24412;DHT22;12544;46.760;15.942;2024-01-15T07:46:57;-4.10;99.90
24412;DHT22;12544;46.760;15.942;2024-01-15T07:49:23;-4.00;99.90
24412;DHT22;12544;46.760;15.942;2024-01-15T07:51:49;-4.00;99.90
24412;DHT22;12544;46.760;15.942;2024-01-15T07:54:14;-3.80;99.90
24412;DHT22;12544;46.760;15.942;2024-01-15T07:56:57;-3.70;99.90
24412;DHT22;12544;46.760;15.942;2024-01-15T07:59:23;-3.80;99.90
24412;DHT22;12544;46.760;15.942;2024-01-15T08:01:49;-3.70;99.90
24412;DHT22;12544;46.760;15.942;2024-01-15T08:04:15;-3.70;99.90
24412;DHT22;12544;46.760;15.942;2024-01-15T08:06:40;-3.60;99.90
24412;DHT22;12544;46.760;15.942;2024-01-15T08:09:06;-3.60;99.90
24412;DHT22;12544;46.760;15.942;2024-01-15T08:11:32;-3.50;99.90
24412;DHT22;12544;46.760;15.942;2024-01-15T08:13:58;-3.50;99.90
24412;DHT22;12544;46.760;15.942;2024-01-15T08:16:23;-3.40;99.90
24412;DHT22;12544;46.760;15.942;2024-01-15T08:18:50;-3.20;99.90
24412;DHT22;12544;46.760;15.942;2024-01-15T08:21:16;-2.90;99.90
24412;DHT22;12544;46.760;15.942;2024-01-15T08:23:42;-2.70;99.90
24412;DHT22;12544;46.760;15.942;2024-01-15T08:26:08;-2.50;99.90
24412;DHT22;12544;46.760;15.942;2024-01-15T08:28:34;-2.30;99.90
24412;DHT22;12544;46.760;15.942;2024-01-15T08:31:00;-2.10;99.90
24412;DHT22;12544;46.760;15.942;2024-01-15T08:33:25;-1.80;99.90
24412;DHT22;12544;46.760;15.942;2024-01-15T08:35:51;-1.60;99.90
24412;DHT22;12544;46.760;15.942;2024-01-15T08:38:16;-1.40;99.90
24412;DHT22;12544;46.760;15.942;2024-01-15T08:40:42;-1.30;99.90
24412;DHT22;12544;46.760;15.942;2024-01-15T08:43:08;-1.20;99.90
24412;DHT22;12544;46.760;15.942;2024-01-15T08:45:33;-1.20;99.90
24412;DHT22;12544;46.760;15.942;2024-01-15T08:47:59;-1.10;99.90
24412;DHT22;12544;46.760;15.942;2024-01-15T08:50:25;-1.10;99.90
24412;DHT22;12544;46.760;15.942;2024-01-15T08:52:50;-1.00;99.90
24412;DHT22;12544;46.760;15.942;2024-01-15T08:55:16;-0.90;99.90
24412;DHT22;12544;46.760;15.942;2024-01-15T08:57:42;-0.90;99.90
24412;DHT22;12544;46.760;15.942;2024-01-15T09:00:09;-0.80;99.90
24412;DHT22;12544;46.760;15.942;2024-01-15T09:02:35;-0.60;99.90
24412;DHT22;12544;46.760;15.942;2024-01-15T09:05:02;-0.50;99.90
24412;DHT22;12544;46.760;15.942;2024-01-15T09:07:29;-0.40;99.90
24412;DHT22;12544;46.760;15.942;2024-01-15T09:09:56;-0.30;99.90
24412;DHT22;12544;46.760;15.942;2024-01-15T09:12:22;-0.20;99.90
24412;DHT22;12544;46.760;15.942;2024-01-15T09:14:47;0.00;99.90
24412;DHT22;12544;46.760;15.942;2024-01-15T09:17:13;0.20;99.90
24412;DHT22;12544;46.760;15.942;2024-01-15T09:19:38;0.40;99.90
24412;DHT22;12544;46.760;15.942;2024-01-15T09:22:05;0.60;99.90
24412;DHT22;12544;46.760;15.942;2024-01-15T09:24:31;0.80;99.90
24412;DHT22;12544;46.760;15.942;2024-01-15T09:26:56;1.00;99.90
24412;DHT22;12544;46.760;15.942;2024-01-15T09:29:22;1.10;99.90
24412;DHT22;12544;46.760;15.942;2024-01-15T09:31:52;1.30;99.90
24412;DHT22;12544;46.760;15.942;2024-01-15T09:34:18;1.50;99.90
24412;DHT22;12544;46.760;15.942;2024-01-15T09:36:43;1.70;99.90
24412;DHT22;12544;46.760;15.942;2024-01-15T09:39:09;1.80;99.90
24412;DHT22;12544;46.760;15.942;2024-01-15T09:41:39;2.00;99.90
24412;DHT22;12544;46.760;15.942;2024-01-15T09:44:05;2.10;99.90
24412;DHT22;12544;46.760;15.942;2024-01-15T09:46:33;2.10;99.90
24412;DHT22;12544;46.760;15.942;2024-01-15T09:49:00;2.10;99.90
24412;DHT22;12544;46.760;15.942;2024-01-15T09:51:28;2.10;99.90
24412;DHT22;12544;46.760;15.942;2024-01-15T09:53:57;2.20;99.90
24412;DHT22;12544;46.760;15.942;2024-01-15T09:56:23;2.30;99.90
24412;DHT22;12544;46.760;15.942;2024-01-15T09:58:49;2.40;99.90
24412;DHT22;12544;46.760;15.942;2024-01-15T10:01:17;2.60;99.90
24412;DHT22;12544;46.760;15.942;2024-01-15T10:03:43;2.70;99.90
24412;DHT22;12544;46.760;15.942;2024-01-15T10:06:09;3.00;99.90
24412;DHT22;12544;46.760;15.942;2024-01-15T10:08:37;3.20;99.90
24412;DHT22;12544;46.760;15.942;2024-01-15T10:11:02;3.30;99.90
24412;DHT22;12544;46.760;15.942;2024-01-15T10:13:30;3.40;99.90
24412;DHT22;12544;46.760;15.942;2024-01-15T10:15:56;3.50;99.90
24412;DHT22;12544;46.760;15.942;2024-01-15T10:18:23;3.70;99.90
24412;DHT22;12544;46.760;15.942;2024-01-15T10:20:49;3.90;99.90
24412;DHT22;12544;46.760;15.942;2024-01-15T10:23:15;4.10;99.90
24412;DHT22;12544;46.760;15.942;2024-01-15T10:25:42;4.30;99.90
24412;DHT22;12544;46.760;15.942;2024-01-15T10:28:08;4.30;99.90
24412;DHT22;12544;46.760;15.942;2024-01-15T10:30:35;4.30;99.90
24412;DHT22;12544;46.760;15.942;2024-01-15T10:33:02;4.20;99.90
24412;DHT22;12544;46.760;15.942;2024-01-15T10:35:33;4.00;99.90
24412;DHT22;12544;46.760;15.942;2024-01-15T10:37:59;4.10;99.90
24412;DHT22;12544;46.760;15.942;2024-01-15T10:40:25;4.20;99.90
24412;DHT22;12544;46.760;15.942;2024-01-15T10:42:51;4.10;99.90
24412;DHT22;12544;46.760;15.942;2024-01-15T10:45:17;4.10;99.90
24412;DHT22;12544;46.760;15.942;2024-01-15T10:47:43;4.20;99.90
24412;DHT22;12544;46.760;15.942;2024-01-15T10:50:09;4.40;99.90
24412;DHT22;12544;46.760;15.942;2024-01-15T10:52:36;4.60;99.90
24412;DHT22;12544;46.760;15.942;2024-01-15T10:55:06;4.80;99.90
24412;DHT22;12544;46.760;15.942;2024-01-15T10:57:33;4.90;99.90
24412;DHT22;12544;46.760;15.942;2024-01-15T10:59:59;5.10;99.90
24412;DHT22;12544;46.760;15.942;2024-01-15T11:02:26;5.40;99.90
24412;DHT22;12544;46.760;15.942;2024-01-15T11:04:51;5.60;99.90
24412;DHT22;12544;46.760;15.942;2024-01-15T11:07:22;6.00;99.90
24412;DHT22;12544;46.760;15.942;2024-01-15T11:09:50;6.10;99.90
24412;DHT22;12544;46.760;15.942;2024-01-15T11:12:16;5.70;99.90
24412;DHT22;12544;46.760;15.942;2024-01-15T11:14:47;5.30;99.90
24412;DHT22;12544;46.760;15.942;2024-01-15T11:17:14;4.90;99.90
24412;DHT22;12544;46.760;15.942;2024-01-15T11:19:48;4.60;99.90
24412;DHT22;12544;46.760;15.942;2024-01-15T11:25:19;4.70;99.90
24412;DHT22;12544;46.760;15.942;2024-01-15T11:27:45;5.10;99.90
24412;DHT22;12544;46.760;15.942;2024-01-15T11:30:17;5.40;99.90
24412;DHT22;12544;46.760;15.942;2024-01-15T11:32:42;5.80;99.90
24412;DHT22;12544;46.760;15.942;2024-01-15T11:35:09;5.80;99.90
24412;DHT22;12544;46.760;15.942;2024-01-15T11:40:18;5.10;99.90
24412;DHT22;12544;46.760;15.942;2024-01-15T11:42:48;4.80;99.90
24412;DHT22;12544;46.760;15.942;2024-01-15T11:45:19;4.00;99.90
24412;DHT22;12544;46.760;15.942;2024-01-15T11:50:11;3.30;99.90
24412;DHT22;12544;46.760;15.942;2024-01-15T11:52:38;3.20;99.90
24412;DHT22;12544;46.760;15.942;2024-01-15T11:55:26;3.30;99.90
24412;DHT22;12544;46.760;15.942;2024-01-15T11:57:54;3.20;99.90
24412;DHT22;12544;46.760;15.942;2024-01-15T12:00:21;3.20;99.90
24412;DHT22;12544;46.760;15.942;2024-01-15T12:02:48;3.10;99.90
24412;DHT22;12544;46.760;15.942;2024-01-15T12:05:16;3.30;99.90
24412;DHT22;12544;46.760;15.942;2024-01-15T12:07:49;3.40;99.90
24412;DHT22;12544;46.760;15.942;2024-01-15T12:10:19;3.40;99.90
24412;DHT22;12544;46.760;15.942;2024-01-15T12:12:59;3.50;99.90
24412;DHT22;12544;46.760;15.942;2024-01-15T12:15:28;3.50;99.90
24412;DHT22;12544;46.760;15.942;2024-01-15T12:17:59;3.50;99.90
24412;DHT22;12544;46.760;15.942;2024-01-15T12:20:26;3.40;99.90
24412;DHT22;12544;46.760;15.942;2024-01-15T12:22:52;3.40;99.90
24412;DHT22;12544;46.760;15.942;2024-01-15T12:25:18;3.40;99.90
24412;DHT22;12544;46.760;15.942;2024-01-15T12:27:44;3.40;99.90
24412;DHT22;12544;46.760;15.942;2024-01-15T12:30:12;3.40;99.90
24412;DHT22;12544;46.760;15.942;2024-01-15T12:32:37;3.50;99.90
24412;DHT22;12544;46.760;15.942;2024-01-15T12:35:03;3.50;99.90
24412;DHT22;12544;46.760;15.942;2024-01-15T12:37:30;3.50;99.90
24412;DHT22;12544;46.760;15.942;2024-01-15T12:39:55;3.50;99.90
24412;DHT22;12544;46.760;15.942;2024-01-15T12:42:22;3.40;99.90
24412;DHT22;12544;46.760;15.942;2024-01-15T12:44:47;3.20;99.90
24412;DHT22;12544;46.760;15.942;2024-01-15T12:47:13;3.10;99.90
24412;DHT22;12544;46.760;15.942;2024-01-15T12:49:39;3.10;99.90
24412;DHT22;12544;46.760;15.942;2024-01-15T12:52:08;3.10;99.90
24412;DHT22;12544;46.760;15.942;2024-01-15T12:54:34;3.10;99.90
24412;DHT22;12544;46.760;15.942;2024-01-15T12:57:00;3.10;99.90
24412;DHT22;12544;46.760;15.942;2024-01-15T12:59:25;3.20;99.90
24412;DHT22;12544;46.760;15.942;2024-01-15T13:01:51;3.30;99.90
24412;DHT22;12544;46.760;15.942;2024-01-15T13:04:23;3.10;99.90
24412;DHT22;12544;46.760;15.942;2024-01-15T13:06:50;3.10;99.90
24412;DHT22;12544;46.760;15.942;2024-01-15T13:09:17;3.00;99.90
24412;DHT22;12544;46.760;15.942;2024-01-15T13:11:46;3.00;99.90
24412;DHT22;12544;46.760;15.942;2024-01-15T13:14:12;3.10;99.90
24412;DHT22;12544;46.760;15.942;2024-01-15T13:16:41;3.20;99.90
24412;DHT22;12544;46.760;15.942;2024-01-15T13:19:08;3.30;99.90
24412;DHT22;12544;46.760;15.942;2024-01-15T13:21:34;3.50;99.90
24412;DHT22;12544;46.760;15.942;2024-01-15T13:23:59;3.40;99.90
24412;DHT22;12544;46.760;15.942;2024-01-15T13:26:25;3.40;99.90
24412;DHT22;12544;46.760;15.942;2024-01-15T13:28:51;3.40;99.90
24412;DHT22;12544;46.760;15.942;2024-01-15T13:31:16;3.40;99.90
24412;DHT22;12544;46.760;15.942;2024-01-15T13:33:42;3.50;99.90
24412;DHT22;12544;46.760;15.942;2024-01-15T13:36:08;3.50;99.90
24412;DHT22;12544;46.760;15.942;2024-01-15T13:38:36;3.30;99.90
24412;DHT22;12544;46.760;15.942;2024-01-15T13:41:08;3.30;99.90
24412;DHT22;12544;46.760;15.942;2024-01-15T13:43:33;3.40;99.90
24412;DHT22;12544;46.760;15.942;2024-01-15T13:45:59;3.40;99.90
24412;DHT22;12544;46.760;15.942;2024-01-15T13:48:25;3.30;99.90
24412;DHT22;12544;46.760;15.942;2024-01-15T13:50:52;3.30;99.90
24412;DHT22;12544;46.760;15.942;2024-01-15T13:53:17;3.20;99.90
24412;DHT22;12544;46.760;15.942;2024-01-15T13:55:44;3.20;99.90
24412;DHT22;12544;46.760;15.942;2024-01-15T13:58:10;3.10;99.90
24412;DHT22;12544;46.760;15.942;2024-01-15T14:00:36;2.90;99.90
24412;DHT22;12544;46.760;15.942;2024-01-15T14:03:02;2.90;99.90
24412;DHT22;12544;46.760;15.942;2024-01-15T14:05:28;2.90;99.90
24412;DHT22;12544;46.760;15.942;2024-01-15T14:07:54;2.90;99.90
24412;DHT22;12544;46.760;15.942;2024-01-15T14:10:20;2.90;99.90
24412;DHT22;12544;46.760;15.942;2024-01-15T14:12:46;2.90;99.90
24412;DHT22;12544;46.760;15.942;2024-01-15T14:15:12;2.90;99.90
24412;DHT22;12544;46.760;15.942;2024-01-15T14:17:37;2.80;99.90
24412;DHT22;12544;46.760;15.942;2024-01-15T14:20:04;2.80;99.90
24412;DHT22;12544;46.760;15.942;2024-01-15T14:22:30;2.80;99.90
24412;DHT22;12544;46.760;15.942;2024-01-15T14:24:56;2.70;99.90
24412;DHT22;12544;46.760;15.942;2024-01-15T14:27:22;2.70;99.90
24412;DHT22;12544;46.760;15.942;2024-01-15T14:29:47;2.60;99.90
24412;DHT22;12544;46.760;15.942;2024-01-15T14:32:13;2.40;99.90
24412;DHT22;12544;46.760;15.942;2024-01-15T14:34:39;2.40;99.90
24412;DHT22;12544;46.760;15.942;2024-01-15T14:37:05;2.40;99.90
24412;DHT22;12544;46.760;15.942;2024-01-15T14:39:31;2.40;99.90
24412;DHT22;12544;46.760;15.942;2024-01-15T14:41:59;2.50;99.90
24412;DHT22;12544;46.760;15.942;2024-01-15T14:44:25;2.50;99.90
24412;DHT22;12544;46.760;15.942;2024-01-15T14:46:51;2.50;99.90
24412;DHT22;12544;46.760;15.942;2024-01-15T14:49:18;2.40;99.90
24412;DHT22;12544;46.760;15.942;2024-01-15T14:51:43;2.40;99.90
24412;DHT22;12544;46.760;15.942;2024-01-15T14:54:10;2.50;99.90
24412;DHT22;12544;46.760;15.942;2024-01-15T14:56:36;2.40;99.90
24412;DHT22;12544;46.760;15.942;2024-01-15T14:59:02;2.40;99.90
24412;DHT22;12544;46.760;15.942;2024-01-15T15:01:28;2.30;99.90
24412;DHT22;12544;46.760;15.942;2024-01-15T15:03:53;2.20;99.90
24412;DHT22;12544;46.760;15.942;2024-01-15T15:06:19;2.10;99.90
24412;DHT22;12544;46.760;15.942;2024-01-15T15:08:46;2.10;99.90
24412;DHT22;12544;46.760;15.942;2024-01-15T15:11:13;2.00;99.90
24412;DHT22;12544;46.760;15.942;2024-01-15T15:13:39;1.90;99.90
24412;DHT22;12544;46.760;15.942;2024-01-15T15:16:05;1.90;99.90
24412;DHT22;12544;46.760;15.942;2024-01-15T15:18:31;1.80;99.90
24412;DHT22;12544;46.760;15.942;2024-01-15T15:20:57;1.80;99.90
24412;DHT22;12544;46.760;15.942;2024-01-15T15:23:22;1.80;99.90
24412;DHT22;12544;46.760;15.942;2024-01-15T15:25:48;1.80;99.90